Time;durP1;ratioP1;P1;durP2;ratioP2;P2;SDS_P1;SDS_P2;PMS_P1;PMS_P2;Temp;Humidity;BMP_temperature;BMP_pressure;BME280_temperature;BME280_humidity;BME280_pressure;Samples;Min_cycle;Max_cycle;Signal;HPM_P1;HPM_P2
2021/08/05 00:00:40;;;;;;;3.72;2.77;;;;;;;17.34;79.97;96115.75;1748513;82;21461;-78
2021/08/05 00:03:08;;;;;;;5.15;3.20;;;;;;;17.37;80.12;96117.12;1748326;82;21091;-79
2021/08/05 00:05:34;;;;;;;5.67;3.08;;;;;;;17.38;80.32;96118.72;1748284;82;21052;-79
2021/08/05 00:08:00;;;;;;;4.83;3.30;;;;;;;17.34;80.39;96114.45;1747869;82;21426;-79
2021/08/05 00:10:25;;;;;;;4.25;3.17;;;;;;;17.34;80.46;96122.33;1747986;82;21072;-79
2021/08/05 00:12:51;;;;;;;4.85;2.80;;;;;;;17.34;80.56;96110.50;1747988;82;21060;-79
2021/08/05 00:15:17;;;;;;;4.60;2.92;;;;;;;17.38;80.71;96109.01;1747803;82;21016;-79
2021/08/05 00:17:43;;;;;;;2.90;2.60;;;;;;;17.39;80.64;96099.30;1747762;82;21382;-79
2021/08/05 00:20:10;;;;;;;5.03;2.90;;;;;;;17.38;80.53;96104.27;1747897;82;20996;-79
2021/08/05 00:22:35;;;;;;;4.10;2.80;;;;;;;17.37;80.71;96102.16;1747818;82;21062;-79
2021/08/05 00:25:02;;;;;;;3.87;3.02;;;;;;;17.34;80.60;96102.62;1748045;82;21024;-79
2021/08/05 00:27:27;;;;;;;4.97;2.98;;;;;;;17.33;80.74;96101.55;1747993;82;21342;-79
2021/08/05 00:29:53;;;;;;;5.05;3.47;;;;;;;17.34;80.91;96105.77;1747795;82;20992;-79
2021/08/05 00:32:19;;;;;;;3.72;3.10;;;;;;;17.32;80.95;96101.27;1748005;82;20992;-79
2021/08/05 00:34:44;;;;;;;4.67;2.90;;;;;;;17.33;81.04;96101.03;1748201;82;20980;-79
2021/08/05 00:37:10;;;;;;;3.98;3.08;;;;;;;17.34;80.89;96093.95;1748228;82;21019;-79
2021/08/05 00:39:36;;;;;;;5.47;3.35;;;;;;;17.36;80.91;96095.83;1748146;82;21019;-78
2021/08/05 00:42:03;;;;;;;3.50;3.17;;;;;;;17.33;81.05;96095.78;1748021;82;21051;-78
2021/08/05 00:44:28;;;;;;;4.65;3.10;;;;;;;17.36;81.15;96087.44;1747882;82;21015;-79
2021/08/05 00:46:54;;;;;;;3.20;2.62;;;;;;;17.35;81.05;96089.78;1747989;82;20992;-79
2021/08/05 00:49:20;;;;;;;3.15;2.85;;;;;;;17.36;81.17;96086.12;1747936;82;20980;-79
2021/08/05 00:51:46;;;;;;;5.78;3.12;;;;;;;17.37;81.17;96082.98;1747679;82;20976;-79
2021/08/05 00:54:12;;;;;;;3.70;2.75;;;;;;;17.38;81.25;96080.63;1728309;83;21086;-79
2021/08/05 00:56:38;;;;;;;4.37;3.27;;;;;;;17.39;81.28;96076.46;1744013;82;20996;-78
2021/08/05 00:59:04;;;;;;;3.05;2.80;;;;;;;17.40;81.29;96075.94;1728807;83;21844;-79
2021/08/05 01:01:43;;;;;;;3.70;3.40;;;;;;;17.38;81.37;96069.61;1743982;82;21023;-79
2021/08/05 01:04:09;;;;;;;3.87;3.15;;;;;;;17.38;81.38;96068.30;1728250;83;21353;-79
2021/08/05 01:06:49;;;;;;;3.47;3.10;;;;;;;17.36;81.37;96067.73;1743706;82;21032;-79
2021/08/05 01:09:36;;;;;;;4.00;2.95;;;;;;;17.37;81.46;96060.66;1727999;83;21377;-79
2021/08/05 01:12:19;;;;;;;4.30;2.95;;;;;;;17.35;81.37;96059.58;1743882;82;20979;-80
2021/08/05 01:14:49;;;;;;;7.55;2.90;;;;;;;17.37;81.36;96050.95;1699000;84;21054;-80
2021/08/05 01:17:15;;;;;;;5.50;3.10;;;;;;;17.35;81.50;96053.53;1718455;82;21286;-80
2021/08/05 01:19:52;;;;;;;6.58;3.22;;;;;;;17.35;81.60;96054.33;1728741;83;20959;-82
2021/08/05 01:22:35;;;;;;;4.15;3.10;;;;;;;17.32;81.68;96058.73;1743420;82;21367;-80
2021/08/05 01:25:08;;;;;;;3.45;3.15;;;;;;;17.34;81.82;96055.88;1728095;82;21030;-80
2021/08/05 01:27:33;;;;;;;3.22;2.90;;;;;;;17.34;81.82;96048.00;1744069;82;20956;-79
2021/08/05 01:29:59;;;;;;;3.70;3.00;;;;;;;17.39;82.02;96039.70;1728867;83;21340;-79
2021/08/05 01:32:25;;;;;;;5.92;3.40;;;;;;;17.40;81.98;96025.53;1743950;82;21059;-82
2021/08/05 01:34:51;;;;;;;6.35;3.62;;;;;;;17.39;81.81;96029.19;1744424;82;21347;-82
2021/08/05 01:37:17;;;;;;;4.60;3.17;;;;;;;17.34;81.69;96022.53;1728691;83;21026;-82
2021/08/05 01:39:43;;;;;;;3.52;3.22;;;;;;;17.34;81.85;96023.84;1718658;82;21076;-82
2021/08/05 01:42:09;;;;;;;5.72;4.12;;;;;;;17.33;81.92;96020.94;1728754;83;21647;-82
2021/08/05 01:44:34;;;;;;;5.17;3.15;;;;;;;17.34;82.00;96025.16;1717748;82;20961;-82
2021/08/05 01:47:00;;;;;;;4.20;2.85;;;;;;;17.36;82.04;96023.09;1728325;83;20971;-81
2021/08/05 01:49:26;;;;;;;4.40;3.40;;;;;;;17.37;82.03;96014.19;1743238;82;20956;-81
2021/08/05 01:51:52;;;;;;;4.65;4.22;;;;;;;17.37;81.93;96008.13;1743752;82;20961;-81
2021/08/05 01:54:18;;;;;;;4.33;3.42;;;;;;;17.35;82.11;95999.70;1743132;82;21154;-81
2021/08/05 01:56:44;;;;;;;3.95;2.98;;;;;;;17.21;82.00;96001.78;1727953;83;21094;-81
2021/08/05 01:59:09;;;;;;;4.05;3.45;;;;;;;17.15;82.08;95997.98;1743115;82;21048;-81
2021/08/05 02:01:35;;;;;;;4.12;3.40;;;;;;;17.13;82.32;96006.09;1728130;83;21033;-81
2021/08/05 02:04:10;;;;;;;4.45;3.50;;;;;;;17.07;82.36;96000.44;1717597;82;21262;-81
2021/08/05 02:06:56;;;;;;;4.55;3.65;;;;;;;17.02;82.58;96001.14;1728419;83;21002;-81
2021/08/05 02:09:32;;;;;;;3.87;3.47;;;;;;;17.07;82.90;96003.06;1691523;84;21104;-81
2021/08/05 02:11:58;;;;;;;5.62;4.20;;;;;;;17.12;82.99;96007.13;1716528;84;21007;-81
2021/08/05 02:14:24;;;;;;;5.62;4.30;;;;;;;17.11;82.80;96004.22;1690898;84;21079;-81
2021/08/05 02:16:49;;;;;;;5.12;4.37;;;;;;;17.13;82.85;96010.55;1716348;84;21087;-81
2021/08/05 02:19:15;;;;;;;6.17;4.60;;;;;;;17.14;82.97;95998.50;1715981;84;21007;-81
2021/08/05 02:21:42;;;;;;;4.20;3.80;;;;;;;17.17;82.92;95999.86;1716085;84;20972;-81
2021/08/05 02:24:08;;;;;;;6.67;4.10;;;;;;;17.18;83.05;95998.31;1715587;84;21087;-81
2021/08/05 02:26:34;;;;;;;4.45;4.05;;;;;;;17.16;82.86;95991.70;1715588;83;21076;-80
2021/08/05 02:29:00;;;;;;;5.78;4.58;;;;;;;17.15;82.88;95988.28;1715258;83;21326;-81
2021/08/05 02:31:25;;;;;;;4.83;4.17;;;;;;;17.20;83.19;95994.14;1716484;83;20996;-81
2021/08/05 02:33:51;;;;;;;4.45;4.00;;;;;;;17.21;83.07;95990.48;1716023;83;21001;-81
2021/08/05 02:36:17;;;;;;;5.45;3.75;;;;;;;17.21;82.89;95988.66;1744106;82;21729;-81
2021/08/05 02:38:42;;;;;;;4.37;3.37;;;;;;;17.21;82.77;95989.17;1743926;82;21286;-81
2021/08/05 02:41:08;;;;;;;4.40;3.62;;;;;;;17.21;82.64;95995.73;1728473;83;21009;-81
2021/08/05 02:43:34;;;;;;;4.90;4.10;;;;;;;17.23;82.75;95993.67;1743609;82;21036;-81
2021/08/05 02:46:00;;;;;;;6.58;4.65;;;;;;;17.22;82.83;95987.62;1728497;83;20998;-81
2021/08/05 02:48:26;;;;;;;4.10;3.70;;;;;;;17.23;82.90;95978.72;1743275;82;21334;-81
2021/08/05 02:50:56;;;;;;;3.65;3.33;;;;;;;17.23;82.71;95971.35;1728061;83;21417;-81
2021/08/05 02:53:21;;;;;;;4.25;3.85;;;;;;;17.23;82.73;95966.11;1709179;83;21464;-80
2021/08/05 02:55:47;;;;;;;4.25;3.85;;;;;;;17.25;82.82;95961.44;1721647;83;21043;-80
2021/08/05 02:58:13;;;;;;;5.28;3.77;;;;;;;17.27;82.80;95968.56;1721591;83;20967;-80
2021/08/05 03:00:39;;;;;;;4.80;4.30;;;;;;;17.28;82.87;95964.39;1747863;82;21060;-80
2021/08/05 03:03:05;;;;;;;5.05;4.65;;;;;;;17.25;82.79;95962.76;1748064;82;20956;-80
2021/08/05 03:05:31;;;;;;;5.55;4.53;;;;;;;17.20;82.92;95967.38;1748095;82;21377;-80
2021/08/05 03:07:56;;;;;;;6.75;4.70;;;;;;;17.19;83.07;95965.78;1747855;82;20961;-80
2021/08/05 03:10:22;;;;;;;5.50;4.87;;;;;;;17.19;83.15;95965.78;1748158;82;20937;-80
2021/08/05 03:12:48;;;;;;;7.03;5.70;;;;;;;17.19;83.22;95963.16;1748066;82;21001;-80
2021/08/05 03:15:14;;;;;;;5.85;5.35;;;;;;;17.24;83.45;95957.99;1747781;82;20984;-80
2021/08/05 03:17:39;;;;;;;5.95;5.05;;;;;;;17.27;83.39;95945.73;1718369;82;20994;-80
2021/08/05 03:20:06;;;;;;;5.37;4.62;;;;;;;17.33;83.33;95947.93;1748127;82;20977;-80
2021/08/05 03:22:32;;;;;;;5.28;4.75;;;;;;;17.33;83.09;95953.18;1747827;82;21347;-80
2021/08/05 03:24:57;;;;;;;4.92;4.42;;;;;;;17.31;82.97;95959.98;1747744;82;21024;-80
2021/08/05 03:27:23;;;;;;;5.65;4.58;;;;;;;17.33;82.99;95966.31;1747805;82;21028;-80
2021/08/05 03:29:49;;;;;;;6.87;5.87;;;;;;;17.33;82.78;95964.48;1748015;82;21350;-80
2021/08/05 03:32:15;;;;;;;5.45;4.97;;;;;;;17.32;83.03;95969.45;1747805;82;21028;-80
2021/08/05 03:34:40;;;;;;;5.60;4.92;;;;;;;17.33;83.20;95968.42;1747994;82;20968;-80
2021/08/05 03:37:06;;;;;;;7.80;6.30;;;;;;;17.33;82.93;95970.25;1747805;82;21402;-80
2021/08/05 03:39:32;;;;;;;5.20;4.70;;;;;;;17.34;83.17;95966.07;1718082;82;20925;-80
2021/08/05 03:41:58;;;;;;;6.20;4.80;;;;;;;17.36;82.95;95964.52;1747987;82;21283;-80
2021/08/05 03:44:23;;;;;;;5.00;4.50;;;;;;;17.37;83.12;95959.55;1747920;82;21299;-80
2021/08/05 03:46:49;;;;;;;5.37;4.87;;;;;;;17.42;83.25;95952.30;1747774;82;20945;-80
2021/08/05 03:49:15;;;;;;;6.42;5.83;;;;;;;17.34;82.85;95952.94;1747447;82;21028;-80
2021/08/05 03:51:41;;;;;;;5.83;5.20;;;;;;;17.25;82.96;95945.69;1747901;82;20984;-80
2021/08/05 03:54:07;;;;;;;5.28;4.87;;;;;;;17.20;83.02;95939.80;1747580;82;21008;-80
2021/08/05 03:56:34;;;;;;;5.00;4.58;;;;;;;17.15;83.12;95933.16;1747775;82;21016;-79
2021/08/05 03:59:01;;;;;;;5.12;4.60;;;;;;;17.18;83.33;95927.44;1747786;82;21474;-80
2021/08/05 04:01:27;;;;;;;5.03;4.53;;;;;;;17.22;83.30;95918.56;1748222;82;21031;-80
2021/08/05 04:03:53;;;;;;;8.55;5.30;;;;;;;17.26;83.70;95917.89;1747895;82;20987;-80
2021/08/05 04:06:18;;;;;;;5.10;4.28;;;;;;;17.23;83.62;95911.77;1718507;82;20937;-80
2021/08/05 04:08:44;;;;;;;5.17;4.65;;;;;;;17.20;83.51;95906.98;1718401;82;21364;-79
2021/08/05 04:11:10;;;;;;;4.22;3.83;;;;;;;16.98;83.48;95892.93;1742866;82;21108;-80
2021/08/05 04:13:36;;;;;;;5.12;4.42;;;;;;;16.91;83.64;95905.38;1748029;82;21060;-80
2021/08/05 04:16:01;;;;;;;5.12;4.62;;;;;;;16.89;84.02;95908.23;1747830;82;21080;-80
2021/08/05 04:18:27;;;;;;;5.95;4.62;;;;;;;16.95;84.11;95901.27;1747935;82;21422;-80
2021/08/05 04:20:53;;;;;;;5.60;5.17;;;;;;;17.01;84.16;95902.95;1747746;82;21688;-80
2021/08/05 04:23:19;;;;;;;6.30;5.70;;;;;;;17.05;84.41;95891.75;1747761;82;21063;-80
2021/08/05 04:25:45;;;;;;;6.03;5.47;;;;;;;17.10;84.42;95892.37;1747842;82;20976;-80
2021/08/05 04:28:11;;;;;;;4.90;4.40;;;;;;;17.12;84.44;95887.69;1742951;82;21817;-80
2021/08/05 04:30:37;;;;;;;5.47;4.97;;;;;;;17.14;84.36;95892.19;1748009;82;21024;-80
2021/08/05 04:33:03;;;;;;;5.72;4.75;;;;;;;17.17;84.39;95887.77;1747917;82;21377;-79
2021/08/05 04:35:29;;;;;;;4.58;4.12;;;;;;;17.21;84.35;95869.20;1748051;82;21035;-80
2021/08/05 04:38:00;;;;;;;4.20;3.80;;;;;;;17.27;84.41;95858.29;1747789;82;20976;-80
2021/08/05 04:40:28;;;;;;;4.55;4.15;;;;;;;17.28;84.28;95857.26;1748268;82;21764;-80
2021/08/05 04:42:54;;;;;;;4.83;3.67;;;;;;;17.30;84.59;95848.63;1748010;82;21003;-80
2021/08/05 04:45:20;;;;;;;4.65;4.00;;;;;;;17.24;84.23;95849.03;1748101;82;20981;-80
2021/08/05 04:48:06;;;;;;;3.42;3.12;;;;;;;17.19;84.21;95863.39;1747815;82;21338;-80
2021/08/05 04:50:35;;;;;;;3.55;3.25;;;;;;;17.18;84.29;95859.17;1747098;82;21012;-80
2021/08/05 04:53:01;;;;;;;3.92;3.27;;;;;;;17.15;84.29;95860.96;1746104;82;21108;-80
2021/08/05 04:55:28;;;;;;;4.05;3.65;;;;;;;17.15;84.43;95869.36;1728633;83;21094;-80
2021/08/05 04:57:56;;;;;;;4.00;3.60;;;;;;;17.15;84.61;95849.66;1743764;82;21047;-80
2021/08/05 05:00:32;;;;;;;3.90;3.35;;;;;;;17.17;85.04;95836.58;1728817;83;21023;-80
2021/08/05 05:02:58;;;;;;;4.00;2.95;;;;;;;17.09;84.70;95850.10;1727537;83;21404;-80
2021/08/05 05:05:25;;;;;;;4.15;3.15;;;;;;;17.06;84.95;95852.66;1744240;82;21080;-79
2021/08/05 05:07:51;;;;;;;4.92;4.53;;;;;;;17.08;85.17;95850.62;1728977;83;20982;-80
2021/08/05 05:10:18;;;;;;;6.08;5.55;;;;;;;17.09;85.21;95846.96;1719197;82;20940;-80
2021/08/05 05:12:44;;;;;;;7.35;6.58;;;;;;;17.08;85.25;95843.23;1729373;83;20954;-80
2021/08/05 05:15:10;;;;;;;6.85;6.25;;;;;;;17.13;85.45;95842.03;1744301;82;21083;-80
2021/08/05 05:17:36;;;;;;;9.08;6.25;;;;;;;17.09;85.17;95842.23;1744930;82;21080;-80
2021/08/05 05:20:04;;;;;;;6.42;4.72;;;;;;;17.07;85.47;95827.20;1729216;83;21501;-80
2021/08/05 05:22:30;;;;;;;4.75;3.58;;;;;;;17.06;85.47;95815.11;1744361;82;21024;-80
2021/08/05 05:24:55;;;;;;;5.50;4.50;;;;;;;17.08;85.62;95841.44;1702270;83;21445;-80
2021/08/05 05:27:21;;;;;;;6.70;4.75;;;;;;;17.05;85.93;95871.27;1744369;82;21063;-80
2021/08/05 05:29:47;;;;;;;6.35;5.70;;;;;;;16.93;85.82;95884.45;1745020;82;21003;-81
2021/08/05 05:32:12;;;;;;;5.83;5.33;;;;;;;16.80;86.81;95882.89;1729233;83;21010;-80
2021/08/05 05:34:38;;;;;;;6.00;5.42;;;;;;;16.76;86.45;95875.72;1729221;83;21337;-80
2021/08/05 05:37:04;;;;;;;6.22;5.62;;;;;;;16.77;86.64;95853.70;1695258;82;20980;-81
2021/08/05 05:39:30;;;;;;;6.00;5.50;;;;;;;16.77;86.60;95878.11;1729371;83;21041;-80
2021/08/05 05:41:55;;;;;;;6.00;5.40;;;;;;;16.83;87.02;95888.70;1729251;83;20971;-80
2021/08/05 05:44:22;;;;;;;7.15;5.83;;;;;;;16.80;86.91;95865.83;1744139;82;20989;-80
2021/08/05 05:46:47;;;;;;;6.60;6.00;;;;;;;16.82;87.03;95838.56;1700028;84;21014;-81
2021/08/05 05:49:13;;;;;;;5.85;5.33;;;;;;;16.83;87.19;95817.85;1729101;83;20935;-80
2021/08/05 05:51:39;;;;;;;5.87;5.30;;;;;;;16.85;87.26;95810.02;1744236;82;21048;-80
2021/08/05 05:54:05;;;;;;;5.03;4.42;;;;;;;16.91;87.41;95827.44;1739620;82;21423;-79
2021/08/05 05:56:32;;;;;;;5.25;4.72;;;;;;;16.96;87.25;95826.77;1748558;82;21009;-80
2021/08/05 05:58:58;;;;;;;4.95;4.22;;;;;;;17.06;87.56;95819.84;1748645;82;20986;-80
2021/08/05 06:01:23;;;;;;;4.72;4.30;;;;;;;17.15;87.26;95815.02;1748651;82;20997;-81
2021/08/05 06:03:49;;;;;;;5.62;3.70;;;;;;;17.25;87.12;95806.54;1748572;82;21374;-80
2021/08/05 06:06:15;;;;;;;4.92;4.00;;;;;;;17.30;86.75;95809.23;1748639;82;21074;-81
2021/08/05 06:08:40;;;;;;;4.55;3.40;;;;;;;17.30;86.73;95811.34;1748615;82;21037;-80
2021/08/05 06:11:06;;;;;;;4.20;3.75;;;;;;;17.36;87.15;95814.33;1748663;82;21054;-81
2021/08/05 06:13:32;;;;;;;4.35;3.70;;;;;;;17.36;86.59;95814.33;1748642;82;21049;-80
2021/08/05 06:15:58;;;;;;;4.15;3.75;;;;;;;17.31;86.38;95818.19;1748347;82;21023;-80
2021/08/05 06:18:24;;;;;;;4.95;4.45;;;;;;;17.31;86.79;95819.50;1743715;82;21473;-79
2021/08/05 06:20:50;;;;;;;6.42;3.40;;;;;;;17.41;86.84;95818.88;1748507;82;21065;-80
2021/08/05 06:23:15;;;;;;;5.35;3.70;;;;;;;17.48;86.62;95810.84;1748713;82;21038;-80
2021/08/05 06:25:41;;;;;;;3.40;3.08;;;;;;;17.52;86.44;95802.23;1748316;82;21519;-80
2021/08/05 06:28:07;;;;;;;2.87;2.67;;;;;;;17.54;86.31;95800.16;1748528;82;21102;-80
2021/08/05 06:30:32;;;;;;;4.37;3.08;;;;;;;17.51;86.19;95798.53;1748522;82;21038;-80
2021/08/05 06:32:58;;;;;;;4.58;3.33;;;;;;;17.51;86.57;95796.70;1748598;82;21077;-80
2021/08/05 06:35:24;;;;;;;3.20;2.90;;;;;;;17.57;86.53;95794.94;1748674;82;21348;-80
2021/08/05 06:37:50;;;;;;;3.60;3.00;;;;;;;17.55;86.57;95794.39;1743642;82;20982;-80
2021/08/05 06:40:16;;;;;;;3.17;2.80;;;;;;;17.61;86.58;95785.57;1748519;82;21090;-80
2021/08/05 06:42:42;;;;;;;6.72;2.90;;;;;;;17.67;86.49;95781.97;1748595;82;20946;-80
2021/08/05 06:45:09;;;;;;;3.42;2.80;;;;;;;17.69;86.52;95778.61;1748686;82;21010;-79
2021/08/05 06:47:45;;;;;;;6.90;3.22;;;;;;;17.59;86.35;95770.56;1748553;82;21026;-80
2021/08/05 06:50:11;;;;;;;4.00;3.00;;;;;;;17.51;86.36;95769.64;1748603;82;21400;-80
2021/08/05 06:52:36;;;;;;;3.45;2.40;;;;;;;17.53;86.79;95765.73;1748696;82;21022;-80
2021/08/05 06:55:03;;;;;;;3.45;2.55;;;;;;;17.59;87.02;95767.42;1748038;82;21069;-80
2021/08/05 06:57:30;;;;;;;2.87;2.60;;;;;;;17.65;86.89;95769.08;1748648;82;21085;-80
2021/08/05 06:59:55;;;;;;;4.37;2.90;;;;;;;17.68;86.47;95761.26;1719464;82;20970;-80
2021/08/05 07:02:21;;;;;;;3.37;3.08;;;;;;;17.63;86.58;95759.33;1748645;82;21451;-80
2021/08/05 07:04:47;;;;;;;3.42;2.70;;;;;;;17.54;86.75;95752.88;1748443;82;21057;-80
2021/08/05 07:07:12;;;;;;;3.50;2.92;;;;;;;17.46;86.70;95754.61;1748489;82;21089;-80
2021/08/05 07:09:38;;;;;;;3.20;2.90;;;;;;;17.48;87.14;95759.62;1748785;82;21037;-80
2021/08/05 07:12:04;;;;;;;3.12;2.87;;;;;;;17.51;87.14;95767.02;1748538;82;21088;-80
2021/08/05 07:14:30;;;;;;;3.37;3.08;;;;;;;17.52;87.25;95764.66;1748649;82;20962;-80
2021/08/05 07:16:56;;;;;;;3.80;3.50;;;;;;;17.56;87.53;95764.45;1748528;82;20978;-80
2021/08/05 07:19:22;;;;;;;5.45;4.03;;;;;;;17.55;87.42;95773.38;1748752;82;20951;-80
2021/08/05 07:21:48;;;;;;;3.70;3.40;;;;;;;17.55;87.72;95768.13;1748677;82;21014;-80
2021/08/05 07:24:13;;;;;;;3.77;3.47;;;;;;;17.60;87.98;95774.27;1748445;82;21014;-80
2021/08/05 07:26:42;;;;;;;4.12;3.58;;;;;;;17.65;87.73;95770.91;1748576;82;21049;-80
2021/08/05 07:29:08;;;;;;;4.45;4.10;;;;;;;17.68;87.95;95771.77;1718929;82;21476;-80
2021/08/05 07:31:34;;;;;;;4.60;4.20;;;;;;;17.75;87.95;95780.81;1748073;82;21068;-80
2021/08/05 07:33:59;;;;;;;4.47;4.08;;;;;;;17.82;87.88;95764.34;1748639;82;21104;-80
2021/08/05 07:36:26;;;;;;;4.33;3.92;;;;;;;17.86;87.49;95766.77;1748670;82;21467;-80
2021/08/05 07:38:52;;;;;;;3.60;3.30;;;;;;;17.87;87.25;95768.35;1748539;82;21052;-80
2021/08/05 07:41:18;;;;;;;4.97;4.35;;;;;;;17.85;87.26;95770.42;1748673;82;21054;-79
2021/08/05 07:43:44;;;;;;;5.00;4.30;;;;;;;17.85;87.36;95773.84;1748462;82;21049;-80
2021/08/05 07:46:10;;;;;;;5.65;5.03;;;;;;;17.89;87.63;95782.04;1748668;82;21057;-80
2021/08/05 07:48:35;;;;;;;5.95;5.33;;;;;;;17.98;87.62;95775.34;1748432;82;21393;-80
2021/08/05 07:51:01;;;;;;;5.10;4.12;;;;;;;18.10;87.73;95772.61;1748508;82;20969;-81
2021/08/05 07:53:27;;;;;;;6.05;5.45;;;;;;;18.19;87.57;95769.82;1748356;82;21113;-80
2021/08/05 07:55:53;;;;;;;5.90;5.25;;;;;;;18.17;86.91;95770.59;1748458;82;21487;-80
2021/08/05 07:58:19;;;;;;;9.73;9.03;;;;;;;18.14;86.45;95774.51;1748569;82;21356;-81
2021/08/05 08:00:44;;;;;;;10.10;9.40;;;;;;;18.12;86.34;95769.22;1719166;82;20993;-80
2021/08/05 08:03:11;;;;;;;8.78;8.08;;;;;;;18.13;86.53;95766.34;1748533;82;21332;-80
2021/08/05 08:05:40;;;;;;;8.48;7.60;;;;;;;18.20;86.68;95768.78;1748600;82;20982;-80
2021/08/05 08:08:07;;;;;;;8.53;6.83;;;;;;;18.24;86.50;95764.13;1748693;82;20990;-80
2021/08/05 08:10:33;;;;;;;6.00;5.50;;;;;;;18.19;86.44;95762.73;1748508;82;21424;-80
2021/08/05 08:12:59;;;;;;;5.95;5.42;;;;;;;18.20;86.45;95763.52;1748665;82;21050;-80
2021/08/05 08:15:26;;;;;;;5.25;4.75;;;;;;;18.23;86.56;95759.11;1748660;82;21329;-80
2021/08/05 08:17:54;;;;;;;5.28;4.78;;;;;;;18.22;86.52;95753.55;1748468;82;20995;-80
2021/08/05 08:20:20;;;;;;;4.50;4.10;;;;;;;18.27;86.71;95750.48;1748102;82;21352;-80
2021/08/05 08:22:47;;;;;;;4.28;3.92;;;;;;;18.29;86.55;95748.40;1748538;82;20986;-81
2021/08/05 08:25:14;;;;;;;3.85;3.55;;;;;;;18.27;86.97;95745.74;1748652;82;21395;-80
2021/08/05 08:27:40;;;;;;;3.67;2.40;;;;;;;18.22;87.03;95739.09;1748595;82;21041;-80
2021/08/05 08:30:09;;;;;;;3.45;3.15;;;;;;;18.16;87.05;95729.56;1748428;82;21488;-80
2021/08/05 08:32:35;;;;;;;2.83;2.60;;;;;;;18.07;86.82;95729.73;1747923;82;21009;-80
2021/08/05 08:35:02;;;;;;;2.40;2.10;;;;;;;18.06;87.21;95728.11;1748546;82;20978;-80
2021/08/05 08:37:28;;;;;;;2.37;2.05;;;;;;;18.16;87.69;95722.98;1748549;82;21030;-80
2021/08/05 08:39:53;;;;;;;2.60;2.40;;;;;;;18.25;87.72;95718.91;1748645;82;21344;-80
2021/08/05 08:42:20;;;;;;;3.62;2.27;;;;;;;18.22;87.37;95718.88;1748220;82;21022;-80
2021/08/05 08:44:45;;;;;;;2.75;2.30;;;;;;;18.26;87.38;95729.17;1748536;82;21357;-80
2021/08/05 08:47:11;;;;;;;4.30;3.10;;;;;;;18.27;87.05;95731.28;1748438;82;21041;-80
2021/08/05 08:49:42;;;;;;;3.15;2.85;;;;;;;18.25;87.32;95724.16;1748602;82;21026;-80
2021/08/05 08:52:08;;;;;;;3.27;2.90;;;;;;;18.26;87.55;95720.48;1720105;82;20994;-80
2021/08/05 08:54:34;;;;;;;3.50;2.67;;;;;;;18.32;87.77;95716.07;1752072;82;21424;-80
2021/08/05 08:57:00;;;;;;;2.62;2.42;;;;;;;18.35;87.53;95714.26;1757141;82;21060;-80
2021/08/05 08:59:26;;;;;;;2.65;2.45;;;;;;;18.32;87.21;95710.29;1756973;81;21009;-80
2021/08/05 09:01:52;;;;;;;3.42;2.75;;;;;;;18.34;87.48;95714.78;1757116;81;21392;-80
2021/08/05 09:04:18;;;;;;;2.90;2.65;;;;;;;18.37;87.19;95714.28;1757135;81;20986;-80
2021/08/05 09:06:48;;;;;;;3.47;2.80;;;;;;;18.42;87.77;95705.16;1731348;82;21028;-80
2021/08/05 09:09:11;;;;;;;6.05;3.15;;;;;;;18.49;87.87;95707.58;1756629;82;20990;-80
2021/08/05 09:11:37;;;;;;;3.20;2.90;;;;;;;18.56;88.00;95703.72;1756973;81;21024;-80
2021/08/05 09:14:03;;;;;;;2.77;2.50;;;;;;;18.62;87.77;95707.19;1757138;82;21395;-80
2021/08/05 09:16:30;;;;;;;2.77;2.58;;;;;;;18.72;88.00;95713.11;1756851;82;20955;-80
2021/08/05 09:19:15;;;;;;;4.90;2.87;;;;;;;18.72;87.24;95714.43;1756976;82;21081;-80
2021/08/05 09:21:57;;;;;;;3.52;3.22;;;;;;;18.69;87.18;95714.91;1757148;82;20987;-80
2021/08/05 09:24:29;;;;;;;3.58;3.02;;;;;;;18.66;87.13;95718.83;1757072;81;21089;-81
2021/08/05 09:26:58;;;;;;;3.27;2.80;;;;;;;18.67;87.53;95718.30;1756890;82;21044;-80
2021/08/05 09:29:23;;;;;;;3.20;2.90;;;;;;;18.71;87.47;95711.50;1756828;82;20974;-80
2021/08/05 09:31:58;;;;;;;2.87;2.52;;;;;;;18.65;87.25;95703.30;1756990;81;21009;-80
2021/08/05 09:34:40;;;;;;;3.60;2.58;;;;;;;18.62;87.12;95711.14;1757055;81;20982;-80
2021/08/05 09:37:11;;;;;;;2.70;2.50;;;;;;;18.60;87.26;95700.86;1756907;81;21375;-80
2021/08/05 09:39:39;;;;;;;4.30;2.83;;;;;;;18.67;87.41;95698.05;1757354;81;21025;-80
2021/08/05 09:42:16;;;;;;;2.70;2.22;;;;;;;18.73;87.33;95698.39;1757207;81;21683;-80
2021/08/05 09:44:45;;;;;;;2.00;1.80;;;;;;;18.82;87.41;95701.34;1756811;82;20994;-80
2021/08/05 09:47:20;;;;;;;3.05;2.20;;;;;;;18.81;87.10;95693.18;1757058;81;21001;-80
2021/08/05 09:49:51;;;;;;;2.58;2.37;;;;;;;18.72;87.00;95694.70;1757214;81;20935;-80
2021/08/05 09:52:33;;;;;;;3.45;2.45;;;;;;;18.71;86.92;95689.95;1757305;81;21021;-79
2021/08/05 09:55:01;;;;;;;5.70;2.10;;;;;;;18.74;87.22;95692.60;1756854;82;21052;-80
2021/08/05 09:57:32;;;;;;;2.58;2.00;;;;;;;18.68;87.00;95694.37;1756775;81;21049;-80
2021/08/05 10:00:16;;;;;;;3.63;2.33;;;;;;;18.69;87.01;95687.27;1756312;81;21006;-80
2021/08/05 10:02:51;;;;;;;3.17;2.02;;;;;;;18.68;87.32;95682.53;1731616;82;20966;-80
2021/08/05 10:05:23;;;;;;;2.70;2.33;;;;;;;18.72;87.29;95674.95;1757236;81;20966;-80
2021/08/05 10:07:56;;;;;;;2.30;1.90;;;;;;;18.77;87.35;95669.73;1757336;81;21647;-80
2021/08/05 10:10:28;;;;;;;2.40;2.17;;;;;;;18.76;87.36;95674.72;1757146;81;20966;-80
2021/08/05 10:12:59;;;;;;;2.70;2.20;;;;;;;18.80;87.22;95670.54;1756037;81;21009;-79
2021/08/05 10:15:26;;;;;;;2.42;2.22;;;;;;;18.79;86.99;95675.53;1757168;81;20950;-80
2021/08/05 10:18:01;;;;;;;4.70;2.92;;;;;;;18.76;86.95;95665.52;1757118;81;20993;-80
2021/08/05 10:20:29;;;;;;;3.12;2.83;;;;;;;18.75;87.13;95667.88;1757066;81;20977;-79
2021/08/05 10:22:58;;;;;;;2.85;2.65;;;;;;;18.65;86.65;95659.35;1757174;82;21029;-80
2021/08/05 10:25:25;;;;;;;2.52;2.22;;;;;;;18.55;86.42;95662.67;1757193;81;21022;-79
2021/08/05 10:27:53;;;;;;;3.80;3.05;;;;;;;18.48;86.89;95646.80;1757001;81;21022;-80
2021/08/05 10:30:19;;;;;;;3.05;2.75;;;;;;;18.42;86.64;95654.38;1756984;81;20973;-80
2021/08/05 10:32:45;;;;;;;3.08;2.77;;;;;;;18.46;87.09;95648.89;1730202;82;21032;-80
2021/08/05 10:35:12;;;;;;;2.98;2.15;;;;;;;18.49;86.91;95647.87;1757315;81;20977;-79
2021/08/05 10:37:38;;;;;;;3.98;3.33;;;;;;;18.45;86.52;95648.09;1730125;82;21025;-79
2021/08/05 10:40:05;;;;;;;3.37;2.92;;;;;;;18.41;86.43;95652.27;1757056;82;20966;-79
2021/08/05 10:42:31;;;;;;;3.20;2.27;;;;;;;18.35;86.70;95642.73;1757128;82;21045;-80
2021/08/05 10:44:57;;;;;;;3.65;2.00;;;;;;;18.40;87.20;95639.38;1721878;82;21454;-79
2021/08/05 10:47:25;;;;;;;3.08;2.55;;;;;;;18.42;86.82;95637.29;1729228;81;21006;-80
2021/08/05 10:49:53;;;;;;;2.27;1.92;;;;;;;18.41;86.78;95633.07;1715804;81;21016;-80
2021/08/05 10:52:42;;;;;;;4.35;2.58;;;;;;;18.42;86.64;95630.71;1718355;81;21613;-79
2021/08/05 10:55:29;;;;;;;2.83;2.27;;;;;;;18.32;86.34;95620.88;1712933;81;21439;-80
2021/08/05 10:58:15;;;;;;;3.35;2.75;;;;;;;18.23;86.71;95621.86;1701014;82;21026;-79
2021/08/05 11:00:54;;;;;;;4.00;2.75;;;;;;;18.24;86.93;95611.61;1707667;82;21025;-79
2021/08/05 11:03:37;;;;;;;2.02;1.57;;;;;;;18.23;86.98;95613.97;1694421;82;20982;-79
2021/08/05 11:06:07;;;;;;;2.55;2.08;;;;;;;18.21;86.91;95606.83;1699776;82;20997;-79
2021/08/05 11:08:33;;;;;;;1.95;1.70;;;;;;;18.20;86.92;95611.81;1708373;83;20942;-80
2021/08/05 11:11:25;;;;;;;2.02;1.82;;;;;;;18.23;87.34;95606.60;1706280;82;21280;-81
2021/08/05 11:14:03;;;;;;;2.20;1.95;;;;;;;18.27;87.34;95602.43;1704302;82;21028;-79
2021/08/05 11:17:00;;;;;;;2.05;1.75;;;;;;;18.33;87.22;95598.00;1734962;80;20941;-80
2021/08/05 11:19:30;;;;;;;5.90;2.10;;;;;;;18.37;87.40;95597.25;1733489;80;21661;-80
2021/08/05 11:21:56;;;;;;;4.05;2.27;;;;;;;18.43;87.34;95588.37;1731727;80;21447;-80
2021/08/05 11:24:50;;;;;;;2.33;1.90;;;;;;;18.43;87.10;95588.90;1728088;81;20998;-80
2021/08/05 11:27:18;;;;;;;2.30;1.95;;;;;;;18.46;87.22;95588.39;1728387;80;20977;-79
2021/08/05 11:29:44;;;;;;;2.37;2.17;;;;;;;18.52;87.16;95578.97;1731420;81;20966;-79
2021/08/05 11:32:28;;;;;;;2.77;2.02;;;;;;;18.56;87.05;95572.18;1730323;81;21041;-79
2021/08/05 11:35:06;;;;;;;5.20;3.00;;;;;;;18.63;87.22;95569.84;1734566;80;20974;-79
2021/08/05 11:37:32;;;;;;;4.40;2.87;;;;;;;18.63;86.97;95571.98;1748537;80;21479;-79